Time;durP1;ratioP1;P1;durP2;ratioP2;P2;SDS_P1;SDS_P2;PMS_P1;PMS_P2;Temp;Humidity;BMP_temperature;BMP_pressure;BME280_temperature;BME280_humidity;BME280_pressure;Samples;Min_cycle;Max_cycle;Signal;HPM_P1;HPM_P2
2023/10/10 00:00:47;;;;;;;;;;;;;;;;;;5052605;28;20029;-71
2023/10/10 00:03:13;;;;;;;;;;;;;;;;;;5051079;28;20337;-71
2023/10/10 00:05:39;;;;;;;;;;;;;;;;;;5052502;28;20473;-70
2023/10/10 00:08:09;;;;;;;;;;;;;;;;;;5052218;28;19992;-71
2023/10/10 00:10:35;;;;;;;;;;;;;;;;;;5052396;28;19986;-70
2023/10/10 00:13:04;;;;;;;;;;;;;;;;;;5052260;28;20032;-71
2023/10/10 00:15:34;;;;;;;;;;;;;;;;;;5052129;28;19986;-70
2023/10/10 00:18:06;;;;;;;;;;;;;;;;;;5050903;28;20123;-71
2023/10/10 00:20:40;;;;;;;;;;;;;;;;;;5050426;28;19993;-70
2023/10/10 00:23:10;;;;;;;;;;;;;;;;;;5051899;28;20071;-71
2023/10/10 00:25:37;;;;;;;;;;;;;;;;;;5052047;28;20370;-70
2023/10/10 00:28:08;;;;;;;;;;;;;;;;;;5051768;28;19989;-70
2023/10/10 00:30:43;;;;;;;;;;;;;;;;;;5050431;28;20331;-71
2023/10/10 00:33:09;;;;;;;;;;;;;;;;;;5051865;28;20060;-70
2023/10/10 00:35:35;;;;;;;;;;;;;;;;;;5051725;28;20530;-70
2023/10/10 00:38:05;;;;;;;;;;;;;;;;;;5051431;28;20040;-70
2023/10/10 00:40:33;;;;;;;;;;;;;;;;;;5049793;28;19998;-71
2023/10/10 00:42:59;;;;;;;;;;;;;;;;;;5051598;28;20520;-70
2023/10/10 00:45:35;;;;;;;;;;;;;;;;;;5051333;28;20022;-70
2023/10/10 00:48:02;;;;;;;;;;;;;;;;;;5051845;28;20052;-71
2023/10/10 00:50:28;;;;;;;;;;;;;;;;;;5051734;28;19982;-72
2023/10/10 00:53:00;;;;;;;;;;;;;;;;;;5051482;28;20029;-72
2023/10/10 00:55:26;;;;;;;;;;;;;;;;;;5050148;28;19987;-71
2023/10/10 00:57:55;;;;;;;;;;;;;;;;;;5051666;28;20040;-70
2023/10/10 01:00:25;;;;;;;;;;;;;;;;;;5050070;28;19985;-71
2023/10/10 01:03:06;;;;;;;;;;;;;;;;;;5050098;28;20096;-71
2023/10/10 01:05:42;;;;;;;;;;;;;;;;;;5051374;28;20041;-71
2023/10/10 01:08:08;;;;;;;;;;;;;;;;;;5051242;28;20560;-71
2023/10/10 01:10:43;;;;;;;;;;;;;;;;;;5051415;28;19990;-71
2023/10/10 01:13:10;;;;;;;;;;;;;;;;;;5051505;28;20013;-71
2023/10/10 01:15:36;;;;;;;;;;;;;;;;;;5051225;28;19982;-71
2023/10/10 01:18:03;;;;;;;;;;;;;;;;;;5049887;28;19985;-71
2023/10/10 01:20:35;;;;;;;;;;;;;;;;;;5051451;28;19986;-71
2023/10/10 01:23:01;;;;;;;;;;;;;;;;;;5051230;28;19986;-71
2023/10/10 01:28:01;;;;;;;;;;;;;;;;;;5051674;28;19990;-71
2023/10/10 01:33:14;;;;;;;;;;;;;;;;;;5051480;28;20012;-72
2023/10/10 01:35:43;;;;;;;;;;;;;;;;;;5051224;28;19990;-71
2023/10/10 01:38:13;;;;;;;;;;;;;;;;;;5051182;28;19997;-71
2023/10/10 01:40:39;;;;;;;;;;;;;;;;;;5051225;28;20068;-71
2023/10/10 01:43:10;;;;;;;;;;;;;;;;;;5051121;28;20327;-71
2023/10/10 01:45:41;;;;;;;;;;;;;;;;;;5049409;28;20021;-70
2023/10/10 01:48:08;;;;;;;;;;;;;;;;;;5050945;28;19982;-71
2023/10/10 01:50:34;;;;;;;;;;;;;;;;;;5052527;28;20085;-72
2023/10/10 01:53:00;;;;;;;;;;;;;;;;;;5054829;28;20111;-71
2023/10/10 01:55:26;;;;;;;;;;;;;;;;;;5054900;28;19986;-71
2023/10/10 01:57:52;;;;;;;;;;;;;;;;;;5054906;28;20039;-71
2023/10/10 02:02:50;;;;;;;;;;;;;;;;;;5054727;28;19981;-71
2023/10/10 02:05:30;;;;;;;;;;;;;;;;;;5054668;28;20025;-71
2023/10/10 02:07:57;;;;;;;;;;;;;;;;;;5054581;28;20047;-71
2023/10/10 02:10:26;;;;;;;;;;;;;;;;;;5054342;28;19982;-71
2023/10/10 02:12:52;;;;;;;;;;;;;;;;;;5054342;28;20010;-70
2023/10/10 02:15:18;;;;;;;;;;;;;;;;;;5054255;28;20035;-71
2023/10/10 02:17:51;;;;;;;;;;;;;;;;;;5054466;28;20035;-70
2023/10/10 02:22:53;;;;;;;;;;;;;;;;;;5054315;28;20035;-71
2023/10/10 02:28:43;;;;;;;;;;;;;;;;;;5054311;28;19986;-71
2023/10/10 02:30:51;;;;;;;;;;;;;;;;;;5053509;28;20033;-71
2023/10/10 02:35:54;;;;;;;;;;;;;;;;;;5053982;28;19981;-72
2023/10/10 02:38:22;;;;;;;;;;;;;;;;;;5053965;28;19993;-71
2023/10/10 02:40:52;;;;;;;;;;;;;;;;;;5053855;28;19992;-72
2023/10/10 02:43:33;;;;;;;;;;;;;;;;;;5054004;28;19985;-71
2023/10/10 02:45:59;;;;;;;;;;;;;;;;;;5053431;28;20043;-72
2023/10/10 02:48:27;;;;;;;;;;;;;;;;;;5052538;28;19990;-72
2023/10/10 02:50:53;;;;;;;;;;;;;;;;;;5053617;28;19986;-71
2023/10/10 02:53:19;;;;;;;;;;;;;;;;;;5053805;28;20059;-71
2023/10/10 02:55:50;;;;;;;;;;;;;;;;;;5053755;28;19989;-72
2023/10/10 02:58:27;;;;;;;;;;;;;;;;;;5052265;28;19986;-71
2023/10/10 03:00:57;;;;;;;;;;;;;;;;;;5053405;28;20393;-72
2023/10/10 03:03:24;;;;;;;;;;;;;;;;;;5051195;28;20021;-71
2023/10/10 03:05:58;;;;;;;;;;;;;;;;;;5053664;28;20002;-70
2023/10/10 03:08:34;;;;;;;;;;;;;;;;;;5053417;28;20481;-72
2023/10/10 03:11:00;;;;;;;;;;;;;;;;;;5053425;28;20534;-71
2023/10/10 03:14:07;;;;;;;;;;;;;;;;;;5053063;28;20595;-72
2023/10/10 03:24:36;;;;;;;;;;;;;;;;;;5053392;28;20005;-70
2023/10/10 03:27:48;;;;;;;;;;;;;;;;;;5052883;28;19989;-73
2023/10/10 03:29:49;;;;;;;;;;;;;;;;;;5052878;28;19986;-71
2023/10/10 03:32:56;;;;;;;;;;;;;;;;;;5053007;28;20016;-73
2023/10/10 03:35:05;;;;;;;;;;;;;;;;;;5052626;28;20001;-73
2023/10/10 03:37:43;;;;;;;;;;;;;;;;;;5053208;28;19982;-73
2023/10/10 05:24:28;;;;;;;;;;;;;;;;;;5031392;28;20036;-73
2023/10/10 05:26:56;;;;;;;;;;;;;;;;;;5051383;28;19989;-73
2023/10/10 05:29:24;;;;;;;;;;;;;;;;;;5049209;28;19994;-72
2023/10/10 05:31:51;;;;;;;;;;;;;;;;;;5035254;28;19986;-74
2023/10/10 05:34:17;;;;;;;;;;;;;;;;;;5038580;28;20006;-72
2023/10/10 05:36:44;;;;;;;;;;;;;;;;;;5034673;28;19986;-72
2023/10/10 05:39:17;;;;;;;;;;;;;;;;;;5035609;28;19986;-71
2023/10/10 05:41:43;;;;;;;;;;;;;;;;;;5055142;28;20024;-71
2023/10/10 05:44:13;;;;;;;;;;;;;;;;;;5037199;28;19992;-72
2023/10/10 05:46:39;;;;;;;;;;;;;;;;;;5034750;28;20474;-71
2023/10/10 05:49:06;;;;;;;;;;;;;;;;;;5035888;28;20101;-71
2023/10/10 05:51:31;;;;;;;;;;;;;;;;;;5051425;28;19996;-72
2023/10/10 05:53:57;;;;;;;;;;;;;;;;;;5054640;28;20370;-72
2023/10/10 05:56:23;;;;;;;;;;;;;;;;;;5054918;28;19986;-73
2023/10/10 05:58:49;;;;;;;;;;;;;;;;;;5052922;28;20005;-72
2023/10/10 06:01:16;;;;;;;;;;;;;;;;;;5038224;28;20493;-72
2023/10/10 06:03:44;;;;;;;;;;;;;;;;;;5034959;28;19986;-70
2023/10/10 06:06:13;;;;;;;;;;;;;;;;;;5048540;28;20002;-69
2023/10/10 06:08:41;;;;;;;;;;;;;;;;;;5046095;28;19986;-70
2023/10/10 06:11:07;;;;;;;;;;;;;;;;;;5048881;28;19993;-68
2023/10/10 06:13:38;;;;;;;;;;;;;;;;;;5048102;28;20056;-69
2023/10/10 06:16:04;;;;;;;;;;;;;;;;;;5046677;28;19996;-70
2023/10/10 06:18:31;;;;;;;;;;;;;;;;;;5054454;28;19985;-70
2023/10/10 06:20:56;;;;;;;;;;;;;;;;;;5034370;28;19990;-71
2023/10/10 06:23:22;;;;;;;;;;;;;;;;;;5036267;28;20446;-69
2023/10/10 06:25:48;;;;;;;;;;;;;;;;;;5032327;28;19982;-70
2023/10/10 06:28:25;;;;;;;;;;;;;;;;;;5034581;28;20001;-71
2023/10/10 06:30:54;;;;;;;;;;;;;;;;;;5061282;28;19985;-73
2023/10/10 06:33:27;;;;;;;;;;;;;;;;;;5060242;28;20512;-70
2023/10/10 06:35:53;;;;;;;;;;;;;;;;;;5056890;28;20080;-71
2023/10/10 06:38:24;;;;;;;;;;;;;;;;;;5057558;28;20089;-71
2023/10/10 06:40:53;;;;;;;;;;;;;;;;;;5052113;28;19986;-71
2023/10/10 06:43:18;;;;;;;;;;;;;;;;;;5053194;28;20371;-71
2023/10/10 06:45:52;;;;;;;;;;;;;;;;;;5053487;28;20116;-71
2023/10/10 06:48:21;;;;;;;;;;;;;;;;;;5052732;28;19986;-71
2023/10/10 06:50:49;;;;;;;;;;;;;;;;;;5041237;28;19993;-70
2023/10/10 06:53:28;;;;;;;;;;;;;;;;;;5054147;28;20056;-70
2023/10/10 06:55:54;;;;;;;;;;;;;;;;;;5038483;28;19990;-71
2023/10/10 06:58:20;;;;;;;;;;;;;;;;;;5034798;28;20048;-71
2023/10/10 07:00:47;;;;;;;;;;;;;;;;;;5036458;28;20001;-70
2023/10/10 07:03:30;;;;;;;;;;;;;;;;;;5033445;28;20037;-69
2023/10/10 07:05:56;;;;;;;;;;;;;;;;;;5034441;28;20008;-71
2023/10/10 07:08:24;;;;;;;;;;;;;;;;;;5051998;28;20084;-71
2023/10/10 07:10:50;;;;;;;;;;;;;;;;;;5052016;28;20075;-71
2023/10/10 07:13:19;;;;;;;;;;;;;;;;;;5044030;28;20014;-71
2023/10/10 07:15:51;;;;;;;;;;;;;;;;;;5033454;28;20036;-71
2023/10/10 07:18:22;;;;;;;;;;;;;;;;;;5032354;28;20426;-70
2023/10/10 07:21:04;;;;;;;;;;;;;;;;;;5033356;28;20080;-69
2023/10/10 07:23:37;;;;;;;;;;;;;;;;;;5033293;28;20403;-72
2023/10/10 07:26:05;;;;;;;;;;;;;;;;;;5032067;28;19990;-70
2023/10/10 07:28:36;;;;;;;;;;;;;;;;;;5033228;28;19997;-71
2023/10/10 07:31:02;;;;;;;;;;;;;;;;;;5032951;28;20062;-72
2023/10/10 07:33:40;;;;;;;;;;;;;;;;;;5032996;28;20046;-71
2023/10/10 07:36:06;;;;;;;;;;;;;;;;;;5032861;28;20039;-71
2023/10/10 07:38:35;;;;;;;;;;;;;;;;;;5033133;28;20117;-71
2023/10/10 07:41:04;;;;;;;;;;;;;;;;;;5031894;28;19986;-71
2023/10/10 07:43:34;;;;;;;;;;;;;;;;;;5032728;28;20085;-71
2023/10/10 07:46:05;;;;;;;;;;;;;;;;;;5031284;28;20364;-70
2023/10/10 07:48:39;;;;;;;;;;;;;;;;;;5032142;28;20022;-70
2023/10/10 07:51:08;;;;;;;;;;;;;;;;;;5032805;28;19994;-70
2023/10/10 07:53:34;;;;;;;;;;;;;;;;;;5032396;28;20020;-70
2023/10/10 07:56:03;;;;;;;;;;;;;;;;;;5032419;28;19986;-70
2023/10/10 07:58:45;;;;;;;;;;;;;;;;;;5032531;28;19989;-71
2023/10/10 08:01:12;;;;;;;;;;;;;;;;;;5032319;28;20213;-72
2023/10/10 08:03:44;;;;;;;;;;;;;;;;;;5032688;28;19990;-71
2023/10/10 08:06:10;;;;;;;;;;;;;;;;;;5032321;28;20002;-71
2023/10/10 08:08:41;;;;;;;;;;;;;;;;;;5032358;28;20048;-71
2023/10/10 08:11:12;;;;;;;;;;;;;;;;;;5030764;28;19986;-71
2023/10/10 08:13:38;;;;;;;;;;;;;;;;;;5032123;28;20017;-71
2023/10/10 08:16:04;;;;;;;;;;;;;;;;;;5032178;28;19990;-70
2023/10/10 08:18:41;;;;;;;;;;;;;;;;;;5032317;28;20441;-70
2023/10/10 08:21:13;;;;;;;;;;;;;;;;;;5032022;28;19985;-70
2023/10/10 08:23:46;;;;;;;;;;;;;;;;;;5032095;28;19985;-70
2023/10/10 08:26:17;;;;;;;;;;;;;;;;;;5032028;28;20076;-71
2023/10/10 08:28:43;;;;;;;;;;;;;;;;;;5031861;28;20077;-71
2023/10/10 08:31:09;;;;;;;;;;;;;;;;;;5032005;28;20025;-70
2023/10/10 08:33:36;;;;;;;;;;;;;;;;;;5031738;28;20022;-70
2023/10/10 08:36:02;;;;;;;;;;;;;;;;;;5031960;28;20407;-71
2023/10/10 08:38:28;;;;;;;;;;;;;;;;;;5031750;28;20040;-70
2023/10/10 08:40:57;;;;;;;;;;;;;;;;;;5031921;28;19986;-71
2023/10/10 08:43:24;;;;;;;;;;;;;;;;;;5031815;28;19992;-71
2023/10/10 08:45:54;;;;;;;;;;;;;;;;;;5031660;28;20537;-70
2023/10/10 08:48:26;;;;;;;;;;;;;;;;;;5031728;28;20477;-71
2023/10/10 08:50:53;;;;;;;;;;;;;;;;;;5031744;28;20477;-70
2023/10/10 08:53:20;;;;;;;;;;;;;;;;;;5031551;28;20026;-70
2023/10/10 08:55:56;;;;;;;;;;;;;;;;;;5031885;28;20059;-70
2023/10/10 08:58:22;;;;;;;;;;;;;;;;;;5030215;28;19985;-70
2023/10/10 09:00:48;;;;;;;;;;;;;;;;;;5031342;28;20052;-69
2023/10/10 09:03:14;;;;;;;;;;;;;;;;;;5031421;28;20018;-72
2023/10/10 09:05:40;;;;;;;;;;;;;;;;;;5031405;28;19998;-70
2023/10/10 09:08:14;;;;;;;;;;;;;;;;;;5031463;28;20440;-70
2023/10/10 09:10:40;;;;;;;;;;;;;;;;;;5031558;28;19987;-71
2023/10/10 09:13:07;;;;;;;;;;;;;;;;;;5031254;28;20060;-70
2023/10/10 09:15:34;;;;;;;;;;;;;;;;;;5031534;28;20484;-71
2023/10/10 09:17:59;;;;;;;;;;;;;;;;;;5031380;28;19994;-71
2023/10/10 09:20:28;;;;;;;;;;;;;;;;;;5031149;28;20051;-71
2023/10/10 09:22:56;;;;;;;;;;;;;;;;;;5031647;28;19986;-71
2023/10/10 09:25:25;;;;;;;;;;;;;;;;;;5031270;28;20481;-71
2023/10/10 09:27:56;;;;;;;;;;;;;;;;;;5031362;28;20037;-71
2023/10/10 09:30:30;;;;;;;;;;;;;;;;;;5031658;28;19986;-71
2023/10/10 09:33:00;;;;;;;;;;;;;;;;;;5031272;28;20060;-71
2023/10/10 09:35:28;;;;;;;;;;;;;;;;;;5031607;28;19986;-71
2023/10/10 09:37:57;;;;;;;;;;;;;;;;;;5031439;28;20031;-71
2023/10/10 09:40:24;;;;;;;;;;;;;;;;;;5030287;28;20009;-71
2023/10/10 09:48:17;;;;;;;;;;;;;;;;;;5031202;28;19989;-71
2023/10/10 09:51:07;;;;;;;;;;;;;;;;;;5031474;28;19990;-71
2023/10/10 09:53:32;;;;;;;;;;;;;;;;;;5030760;28;20068;-72
2023/10/10 09:56:01;;;;;;;;;;;;;;;;;;5031246;28;19997;-72
2023/10/10 09:58:29;;;;;;;;;;;;;;;;;;5030448;28;20324;-71
2023/10/10 10:01:03;;;;;;;;;;;;;;;;;;5031031;28;19986;-71
2023/10/10 10:06:05;;;;;;;;;;;;;;;;;;5030967;28;20456;-70
2023/10/10 10:08:37;;;;;;;;;;;;;;;;;;5029772;28;20355;-71
2023/10/10 10:11:11;;;;;;;;;;;;;;;;;;5031649;28;20462;-71
2023/10/10 10:13:37;;;;;;;;;;;;;;;;;;5034794;28;20014;-71
2023/10/10 10:16:08;;;;;;;;;;;;;;;;;;5034751;28;20513;-72
2023/10/10 10:19:11;;;;;;;;;;;;;;;;;;5034708;28;19993;-71
2023/10/10 10:21:27;;;;;;;;;;;;;;;;;;5034547;28;19994;-72
2023/10/10 10:23:57;;;;;;;;;;;;;;;;;;5034753;28;20085;-72
2023/10/10 10:26:31;;;;;;;;;;;;;;;;;;5034542;28;20493;-70
2023/10/10 10:28:57;;;;;;;;;;;;;;;;;;5034570;28;20411;-70
2023/10/10 10:31:29;;;;;;;;;;;;;;;;;;5034896;28;20489;-71
2023/10/10 10:33:55;;;;;;;;;;;;;;;;;;5034548;28;20121;-71
2023/10/10 10:36:27;;;;;;;;;;;;;;;;;;5034407;28;20475;-71
2023/10/10 10:41:53;;;;;;;;;;;;;;;;;;5034666;28;19989;-71
2023/10/10 10:44:23;;;;;;;;;;;;;;;;;;5034062;28;19997;-71
2023/10/10 10:46:49;;;;;;;;;;;;;;;;;;5034269;28;20018;-71
2023/10/10 10:49:15;;;;;;;;;;;;;;;;;;5033913;28;20008;-71
2023/10/10 10:51:44;;;;;;;;;;;;;;;;;;5033950;28;20112;-71
2023/10/10 10:54:35;;;;;;;;;;;;;;;;;;5034406;28;20075;-71
2023/10/10 10:57:01;;;;;;;;;;;;;;;;;;5033847;28;20352;-71
2023/10/10 10:59:35;;;;;;;;;;;;;;;;;;5033927;28;20079;-71
2023/10/10 11:02:03;;;;;;;;;;;;;;;;;;5032849;28;20139;-71
2023/10/10 11:07:00;;;;;;;;;;;;;;;;;;5033880;28;20124;-71
2023/10/10 11:09:30;;;;;;;;;;;;;;;;;;5034249;28;19986;-72
2023/10/10 11:12:02;;;;;;;;;;;;;;;;;;5033856;28;20040;-71
2023/10/10 11:14:29;;;;;;;;;;;;;;;;;;5033369;28;20014;-70
2023/10/10 11:16:57;;;;;;;;;;;;;;;;;;5033631;28;19994;-70
2023/10/10 11:21:49;;;;;;;;;;;;;;;;;;5033553;28;19982;-71
2023/10/10 11:24:15;;;;;;;;;;;;;;;;;;5032463;28;19997;-72
2023/10/10 11:26:43;;;;;;;;;;;;;;;;;;5033319;28;19986;-71
2023/10/10 11:29:20;;;;;;;;;;;;;;;;;;5033223;28;19989;-71
2023/10/10 11:31:48;;;;;;;;;;;;;;;;;;5033191;28;19996;-71
2023/10/10 11:34:27;;;;;;;;;;;;;;;;;;5033086;28;20366;-71
2023/10/10 11:36:53;;;;;;;;;;;;;;;;;;5033205;28;20058;-71
2023/10/10 11:39:19;;;;;;;;;;;;;;;;;;5033297;28;20252;-71
2023/10/10 11:41:45;;;;;;;;;;;;;;;;;;5033211;28;19989;-72
2023/10/10 11:44:11;;;;;;;;;;;;;;;;;;5033258;28;20513;-71
2023/10/10 11:46:38;;;;;;;;;;;;;;;;;;5032599;28;20500;-70
2023/10/10 11:49:04;;;;;;;;;;;;;;;;;;5033559;28;20041;-70
2023/10/10 11:51:31;;;;;;;;;;;;;;;;;;5032696;28;20013;-71
2023/10/10 11:53:57;;;;;;;;;;;;;;;;;;5032837;28;20010;-70
2023/10/10 11:56:25;;;;;;;;;;;;;;;;;;5032474;28;20023;-72
2023/10/10 11:58:52;;;;;;;;;;;;;;;;;;5032707;28;20578;-70
2023/10/10 12:01:47;;;;;;;;;;;;;;;;;;5032579;28;19997;-70
2023/10/10 12:04:20;;;;;;;;;;;;;;;;;;5032411;28;19992;-70
2023/10/10 12:06:46;;;;;;;;;;;;;;;;;;5032513;28;20009;-70
2023/10/10 12:09:18;;;;;;;;;;;;;;;;;;5032522;28;19990;-71
2023/10/10 12:11:44;;;;;;;;;;;;;;;;;;5032444;28;20470;-72
2023/10/10 12:14:18;;;;;;;;;;;;;;;;;;5032469;28;20083;-70
2023/10/10 12:16:50;;;;;;;;;;;;;;;;;;5031330;28;19989;-72
2023/10/10 12:19:16;;;;;;;;;;;;;;;;;;5032468;28;19996;-70
2023/10/10 12:21:42;;;;;;;;;;;;;;;;;;5032223;28;20072;-71
2023/10/10 12:24:07;;;;;;;;;;;;;;;;;;5032333;28;20025;-71
2023/10/10 12:26:39;;;;;;;;;;;;;;;;;;5032055;28;19982;-72
2023/10/10 12:29:04;;;;;;;;;;;;;;;;;;5030719;28;20081;-70
2023/10/10 12:31:34;;;;;;;;;;;;;;;;;;5032015;28;20033;-71
2023/10/10 12:34:00;;;;;;;;;;;;;;;;;;5030979;28;20024;-72
2023/10/10 12:36:29;;;;;;;;;;;;;;;;;;5030632;28;20397;-71
2023/10/10 12:38:55;;;;;;;;;;;;;;;;;;5032065;28;20024;-71
2023/10/10 12:41:21;;;;;;;;;;;;;;;;;;5032005;28;19993;-71
2023/10/10 12:43:47;;;;;;;;;;;;;;;;;;5031789;28;19982;-71
2023/10/10 12:46:16;;;;;;;;;;;;;;;;;;5031803;28;20486;-71
2023/10/10 12:48:42;;;;;;;;;;;;;;;;;;5031578;28;19986;-71
2023/10/10 12:51:12;;;;;;;;;;;;;;;;;;5032190;28;20010;-71
2023/10/10 12:53:43;;;;;;;;;;;;;;;;;;5031761;28;20018;-72
2023/10/10 12:56:12;;;;;;;;;;;;;;;;;;5031902;28;19993;-71
2023/10/10 12:58:43;;;;;;;;;;;;;;;;;;5031529;28;19986;-72
2023/10/10 13:01:12;;;;;;;;;;;;;;;;;;5031591;28;19993;-71
2023/10/10 13:03:38;;;;;;;;;;;;;;;;;;5030604;28;19990;-71
2023/10/10 13:06:04;;;;;;;;;;;;;;;;;;5031587;28;20228;-71
2023/10/10 13:08:46;;;;;;;;;;;;;;;;;;5030237;28;20461;-72
2023/10/10 13:11:14;;;;;;;;;;;;;;;;;;5030271;28;19993;-71
2023/10/10 13:13:48;;;;;;;;;;;;;;;;;;5031446;28;20142;-71
2023/10/10 13:18:59;;;;;;;;;;;;;;;;;;5031329;28;19989;-70
2023/10/10 13:21:25;;;;;;;;;;;;;;;;;;5031224;28;19986;-70
2023/10/10 13:23:51;;;;;;;;;;;;;;;;;;5030105;28;20356;-71
2023/10/10 13:26:17;;;;;;;;;;;;;;;;;;5031491;28;19993;-71
2023/10/10 13:28:46;;;;;;;;;;;;;;;;;;5031410;28;19982;-72
2023/10/10 13:31:12;;;;;;;;;;;;;;;;;;5031585;28;20395;-71
2023/10/10 13:33:39;;;;;;;;;;;;;;;;;;5031430;28;20014;-72
2023/10/10 13:36:05;;;;;;;;;;;;;;;;;;5031306;28;20040;-71
2023/10/10 13:38:31;;;;;;;;;;;;;;;;;;5031403;28;19989;-71
2023/10/10 13:41:01;;;;;;;;;;;;;;;;;;5031552;28;19990;-71
2023/10/10 13:43:27;;;;;;;;;;;;;;;;;;5031574;28;19986;-71
2023/10/10 13:45:57;;;;;;;;;;;;;;;;;;5031442;28;20117;-71
2023/10/10 13:48:24;;;;;;;;;;;;;;;;;;5035278;28;20030;-71
2023/10/10 13:50:56;;;;;;;;;;;;;;;;;;5035258;28;19986;-72
2023/10/10 13:53:21;;;;;;;;;;;;;;;;;;5035406;28;20014;-71
2023/10/10 13:55:47;;;;;;;;;;;;;;;;;;5035134;28;20585;-71
2023/10/10 13:58:13;;;;;;;;;;;;;;;;;;5035077;28;19986;-71
2023/10/10 14:00:39;;;;;;;;;;;;;;;;;;5035104;28;20031;-71
2023/10/10 14:03:05;;;;;;;;;;;;;;;;;;5035022;28;20191;-71
2023/10/10 14:05:33;;;;;;;;;;;;;;;;;;5034726;28;20002;-70
2023/10/10 14:08:00;;;;;;;;;;;;;;;;;;5034827;28;20172;-72
2023/10/10 14:10:26;;;;;;;;;;;;;;;;;;5034694;28;19990;-70
2023/10/10 14:12:52;;;;;;;;;;;;;;;;;;5034523;28;20006;-71
2023/10/10 14:15:21;;;;;;;;;;;;;;;;;;5034347;28;20457;-71
2023/10/10 14:17:47;;;;;;;;;;;;;;;;;;5034573;28;19982;-71
2023/10/10 14:20:22;;;;;;;;;;;;;;;;;;5034212;28;20512;-71
2023/10/10 14:22:51;;;;;;;;;;;;;;;;;;5034509;28;19996;-70
2023/10/10 14:25:16;;;;;;;;;;;;;;;;;;5034679;28;20012;-72
2023/10/10 14:27:43;;;;;;;;;;;;;;;;;;5034412;28;19989;-71
2023/10/10 14:30:21;;;;;;;;;;;;;;;;;;5034309;28;20371;-70
2023/10/10 14:32:47;;;;;;;;;;;;;;;;;;5034732;28;20056;-71
2023/10/10 14:35:15;;;;;;;;;;;;;;;;;;5033079;28;19994;-70
2023/10/10 14:37:41;;;;;;;;;;;;;;;;;;5034222;28;20463;-70
2023/10/10 14:40:09;;;;;;;;;;;;;;;;;;5034020;28;20068;-71
2023/10/10 14:42:35;;;;;;;;;;;;;;;;;;5034058;28;20068;-71
2023/10/10 14:45:03;;;;;;;;;;;;;;;;;;5033968;28;20522;-71
2023/10/10 14:47:33;;;;;;;;;;;;;;;;;;5035402;28;20275;-70
2023/10/10 14:50:06;;;;;;;;;;;;;;;;;;5047544;28;19990;-69
2023/10/10 14:52:39;;;;;;;;;;;;;;;;;;5070932;28;19986;-71
2023/10/10 14:55:13;;;;;;;;;;;;;;;;;;5046977;28;20001;-71
2023/10/10 14:57:41;;;;;;;;;;;;;;;;;;5036136;28;19990;-70
2023/10/10 15:00:17;;;;;;;;;;;;;;;;;;5034419;28;20484;-71
2023/10/10 15:02:43;;;;;;;;;;;;;;;;;;5047299;28;19986;-71
2023/10/10 15:05:11;;;;;;;;;;;;;;;;;;5049760;28;20006;-70
2023/10/10 15:07:43;;;;;;;;;;;;;;;;;;5053066;28;19982;-68
2023/10/10 15:10:10;;;;;;;;;;;;;;;;;;5050503;28;19990;-69
2023/10/10 15:12:36;;;;;;;;;;;;;;;;;;5047875;28;19990;-70
2023/10/10 15:15:02;;;;;;;;;;;;;;;;;;5039275;28;19998;-69
2023/10/10 15:17:28;;;;;;;;;;;;;;;;;;5044953;28;20473;-72
2023/10/10 15:19:54;;;;;;;;;;;;;;;;;;5036449;28;19986;-72
2023/10/10 15:22:20;;;;;;;;;;;;;;;;;;5041821;28;19990;-70
2023/10/10 15:24:49;;;;;;;;;;;;;;;;;;5040448;28;19990;-71
2023/10/10 15:27:16;;;;;;;;;;;;;;;;;;5043101;28;19986;-68
2023/10/10 15:29:42;;;;;;;;;;;;;;;;;;5040150;28;20052;-73
2023/10/10 15:32:08;;;;;;;;;;;;;;;;;;5048634;28;20040;-71
2023/10/10 15:34:34;;;;;;;;;;;;;;;;;;5052918;28;20014;-72
2023/10/10 15:37:09;;;;;;;;;;;;;;;;;;5040483;28;20001;-71
2023/10/10 15:39:38;;;;;;;;;;;;;;;;;;5045926;28;20000;-72
2023/10/10 15:42:04;;;;;;;;;;;;;;;;;;5041797;28;19985;-72
2023/10/10 15:44:30;;;;;;;;;;;;;;;;;;5038559;28;20300;-71
2023/10/10 15:46:58;;;;;;;;;;;;;;;;;;5040064;28;19998;-71
2023/10/10 15:49:25;;;;;;;;;;;;;;;;;;5044350;28;20021;-71
2023/10/10 15:51:52;;;;;;;;;;;;;;;;;;5040839;28;20399;-71
2023/10/10 15:54:19;;;;;;;;;;;;;;;;;;5034518;28;20072;-73
2023/10/10 15:56:47;;;;;;;;;;;;;;;;;;5052599;28;19982;-73
2023/10/10 15:59:16;;;;;;;;;;;;;;;;;;5043276;28;19990;-73
2023/10/10 16:01:46;;;;;;;;;;;;;;;;;;5032900;28;20397;-73
2023/10/10 16:04:12;;;;;;;;;;;;;;;;;;5049335;28;20000;-75
2023/10/10 16:06:38;;;;;;;;;;;;;;;;;;5043943;28;20006;-75
2023/10/10 16:09:11;;;;;;;;;;;;;;;;;;5032056;28;20358;-73
2023/10/10 16:11:37;;;;;;;;;;;;;;;;;;5043130;28;19990;-73
2023/10/10 16:14:12;;;;;;;;;;;;;;;;;;5038297;28;20014;-72
2023/10/10 16:16:43;;;;;;;;;;;;;;;;;;5052207;28;19989;-72
2023/10/10 16:19:09;;;;;;;;;;;;;;;;;;5051281;28;20000;-73
2023/10/10 16:21:38;;;;;;;;;;;;;;;;;;5052295;28;20039;-73
2023/10/10 16:24:04;;;;;;;;;;;;;;;;;;5052026;28;19982;-73
2023/10/10 16:26:30;;;;;;;;;;;;;;;;;;5047963;28;19986;-73
2023/10/10 16:28:56;;;;;;;;;;;;;;;;;;5032256;28;20029;-72
2023/10/10 16:31:29;;;;;;;;;;;;;;;;;;5032026;28;20144;-73
2023/10/10 16:33:55;;;;;;;;;;;;;;;;;;5031137;28;20022;-72
2023/10/10 16:36:21;;;;;;;;;;;;;;;;;;5051163;28;19989;-72
2023/10/10 16:38:50;;;;;;;;;;;;;;;;;;5051065;28;20335;-71
2023/10/10 16:41:16;;;;;;;;;;;;;;;;;;5035323;28;20035;-73
2023/10/10 16:43:41;;;;;;;;;;;;;;;;;;5039432;28;19990;-74
2023/10/10 16:46:12;;;;;;;;;;;;;;;;;;5036418;28;20013;-72
2023/10/10 16:48:38;;;;;;;;;;;;;;;;;;5053723;28;20357;-71
2023/10/10 16:51:04;;;;;;;;;;;;;;;;;;5071744;28;19989;-72
2023/10/10 16:53:30;;;;;;;;;;;;;;;;;;5055642;28;20010;-71
2023/10/10 16:55:56;;;;;;;;;;;;;;;;;;5050415;28;20350;-71
2023/10/10 16:58:22;;;;;;;;;;;;;;;;;;5044725;28;19993;-71
2023/10/10 17:00:48;;;;;;;;;;;;;;;;;;5030900;28;19989;-72
2023/10/10 17:03:14;;;;;;;;;;;;;;;;;;5030825;28;19997;-70
2023/10/10 17:05:40;;;;;;;;;;;;;;;;;;5031469;28;20002;-71
2023/10/10 17:08:06;;;;;;;;;;;;;;;;;;5031497;28;19990;-73
2023/10/10 17:10:32;;;;;;;;;;;;;;;;;;5035107;28;19993;-70
2023/10/10 17:13:00;;;;;;;;;;;;;;;;;;5051451;28;20007;-70
2023/10/10 17:15:26;;;;;;;;;;;;;;;;;;5051493;28;19992;-71
2023/10/10 17:17:52;;;;;;;;;;;;;;;;;;5038034;28;19990;-71
2023/10/10 17:20:18;;;;;;;;;;;;;;;;;;5031204;28;20397;-71
2023/10/10 17:22:44;;;;;;;;;;;;;;;;;;5034223;28;20034;-71
2023/10/10 17:25:10;;;;;;;;;;;;;;;;;;5031248;28;20018;-69
2023/10/10 17:27:37;;;;;;;;;;;;;;;;;;5031337;28;20543;-74
2023/10/10 17:30:04;;;;;;;;;;;;;;;;;;5032888;28;20405;-70
2023/10/10 17:32:30;;;;;;;;;;;;;;;;;;5044676;28;19986;-70
2023/10/10 17:35:02;;;;;;;;;;;;;;;;;;5035113;28;20373;-70
2023/10/10 17:37:28;;;;;;;;;;;;;;;;;;5034145;28;19986;-71
2023/10/10 17:39:54;;;;;;;;;;;;;;;;;;5031261;28;20032;-72
2023/10/10 17:42:23;;;;;;;;;;;;;;;;;;5031450;28;20044;-73
2023/10/10 17:44:49;;;;;;;;;;;;;;;;;;5035583;28;20018;-72
2023/10/10 17:47:15;;;;;;;;;;;;;;;;;;5030946;28;20421;-72
2023/10/10 17:49:41;;;;;;;;;;;;;;;;;;5032287;28;20004;-73
2023/10/10 17:52:07;;;;;;;;;;;;;;;;;;5042086;28;19990;-71
2023/10/10 17:54:33;;;;;;;;;;;;;;;;;;5041711;28;20056;-71
2023/10/10 17:57:00;;;;;;;;;;;;;;;;;;5040018;28;20024;-71
2023/10/10 17:59:26;;;;;;;;;;;;;;;;;;5042333;28;20083;-71
2023/10/10 18:01:54;;;;;;;;;;;;;;;;;;5042670;28;20040;-71
2023/10/10 18:04:20;;;;;;;;;;;;;;;;;;5042698;28;19997;-72
2023/10/10 18:06:48;;;;;;;;;;;;;;;;;;5041069;28;20006;-71
2023/10/10 18:09:17;;;;;;;;;;;;;;;;;;5039962;28;19990;-70
2023/10/10 18:11:43;;;;;;;;;;;;;;;;;;5041379;28;20355;-70
2023/10/10 18:14:08;;;;;;;;;;;;;;;;;;5030723;28;20014;-72
2023/10/10 18:16:34;;;;;;;;;;;;;;;;;;5050582;28;19989;-73
2023/10/10 18:19:00;;;;;;;;;;;;;;;;;;5051446;28;20076;-77
2023/10/10 18:21:29;;;;;;;;;;;;;;;;;;5050074;28;19996;-77
2023/10/10 18:23:55;;;;;;;;;;;;;;;;;;5040710;28;19982;-78
2023/10/10 18:26:24;;;;;;;;;;;;;;;;;;5050545;28;19982;-79
2023/10/10 18:28:51;;;;;;;;;;;;;;;;;;5050527;28;19982;-78
2023/10/10 18:31:17;;;;;;;;;;;;;;;;;;5050420;28;20629;-78
2023/10/10 18:33:43;;;;;;;;;;;;;;;;;;5063117;28;20060;-78
2023/10/10 18:36:10;;;;;;;;;;;;;;;;;;5071369;28;19982;-79
2023/10/10 18:38:36;;;;;;;;;;;;;;;;;;5053795;28;20069;-79
2023/10/10 18:41:03;;;;;;;;;;;;;;;;;;5047434;28;20426;-79
2023/10/10 18:43:30;;;;;;;;;;;;;;;;;;5044592;28;20089;-78
2023/10/10 18:45:56;;;;;;;;;;;;;;;;;;5036619;28;20024;-76
2023/10/10 18:48:27;;;;;;;;;;;;;;;;;;5034122;28;19986;-78
2023/10/10 18:50:53;;;;;;;;;;;;;;;;;;5033166;28;19990;-78
2023/10/10 18:53:19;;;;;;;;;;;;;;;;;;5036886;28;20005;-80
2023/10/10 18:55:49;;;;;;;;;;;;;;;;;;5045051;28;20001;-78
2023/10/10 18:58:15;;;;;;;;;;;;;;;;;;5050583;28;20420;-78
2023/10/10 19:00:41;;;;;;;;;;;;;;;;;;5035927;28;19986;-78
2023/10/10 19:03:08;;;;;;;;;;;;;;;;;;5040657;28;19997;-79
2023/10/10 19:05:35;;;;;;;;;;;;;;;;;;5052404;28;19998;-79
2023/10/10 19:08:01;;;;;;;;;;;;;;;;;;5053423;28;19982;-78
2023/10/10 19:10:27;;;;;;;;;;;;;;;;;;5053672;28;19990;-79
2023/10/10 19:12:53;;;;;;;;;;;;;;;;;;5046871;28;19981;-76
2023/10/10 19:15:19;;;;;;;;;;;;;;;;;;5052357;28;20510;-79
2023/10/10 19:17:45;;;;;;;;;;;;;;;;;;5051314;28;19986;-79
2023/10/10 19:20:16;;;;;;;;;;;;;;;;;;5051226;28;19990;-80
2023/10/10 19:22:42;;;;;;;;;;;;;;;;;;5047193;28;19997;-78